sensor_id;sensor_type;location;lat;lon;timestamp;P1;durP1;ratioP1;P2;durP2;ratioP2
35540;SDS011;21650;48.840;9.162;2023-05-10T00:00:11;0.40;;;0.40;;
35540;SDS011;21650;48.840;9.162;2023-05-10T00:02:37;0.20;;;0.20;;
35540;SDS011;21650;48.840;9.162;2023-05-10T00:05:03;2.87;;;0.30;;
35540;SDS011;21650;48.840;9.162;2023-05-10T00:07:30;0.57;;;0.37;;
35540;SDS011;21650;48.840;9.162;2023-05-10T00:09:55;1.73;;;0.30;;
35540;SDS011;21650;48.840;9.162;2023-05-10T00:12:21;0.20;;;0.20;;
35540;SDS011;21650;48.840;9.162;2023-05-10T00:14:46;0.50;;;0.40;;
35540;SDS011;21650;48.840;9.162;2023-05-10T00:17:12;1.10;;;0.40;;
35540;SDS011;21650;48.840;9.162;2023-05-10T00:19:37;0.20;;;0.20;;
35540;SDS011;21650;48.840;9.162;2023-05-10T00:22:03;0.17;;;0.17;;
35540;SDS011;21650;48.840;9.162;2023-05-10T00:24:28;0.40;;;0.20;;
35540;SDS011;21650;48.840;9.162;2023-05-10T00:26:54;0.17;;;0.17;;
35540;SDS011;21650;48.840;9.162;2023-05-10T00:29:19;0.37;;;0.30;;
35540;SDS011;21650;48.840;9.162;2023-05-10T00:31:45;0.20;;;0.20;;
35540;SDS011;21650;48.840;9.162;2023-05-10T00:34:10;0.20;;;0.20;;
35540;SDS011;21650;48.840;9.162;2023-05-10T00:36:36;0.77;;;0.20;;
35540;SDS011;21650;48.840;9.162;2023-05-10T00:39:01;0.83;;;0.20;;
35540;SDS011;21650;48.840;9.162;2023-05-10T00:41:28;0.50;;;0.20;;
35540;SDS011;21650;48.840;9.162;2023-05-10T00:43:56;10.27;;;1.87;;
35540;SDS011;21650;48.840;9.162;2023-05-10T00:46:22;0.10;;;0.10;;
35540;SDS011;21650;48.840;9.162;2023-05-10T00:48:48;0.43;;;0.20;;
35540;SDS011;21650;48.840;9.162;2023-05-10T00:51:14;2.97;;;0.20;;
35540;SDS011;21650;48.840;9.162;2023-05-10T00:53:39;0.20;;;0.20;;
35540;SDS011;21650;48.840;9.162;2023-05-10T00:56:05;0.20;;;0.10;;
35540;SDS011;21650;48.840;9.162;2023-05-10T00:58:31;0.40;;;0.20;;
35540;SDS011;21650;48.840;9.162;2023-05-10T01:00:57;2.33;;;0.10;;
35540;SDS011;21650;48.840;9.162;2023-05-10T01:03:23;0.10;;;0.10;;
35540;SDS011;21650;48.840;9.162;2023-05-10T01:05:49;0.60;;;0.20;;
35540;SDS011;21650;48.840;9.162;2023-05-10T01:08:15;0.27;;;0.20;;
35540;SDS011;21650;48.840;9.162;2023-05-10T01:10:40;0.30;;;0.30;;
35540;SDS011;21650;48.840;9.162;2023-05-10T01:13:06;0.13;;;0.13;;
35540;SDS011;21650;48.840;9.162;2023-05-10T01:15:35;0.40;;;0.30;;
35540;SDS011;21650;48.840;9.162;2023-05-10T01:18:01;0.30;;;0.30;;
35540;SDS011;21650;48.840;9.162;2023-05-10T01:20:30;0.40;;;0.40;;
35540;SDS011;21650;48.840;9.162;2023-05-10T01:23:05;0.57;;;0.37;;
35540;SDS011;21650;48.840;9.162;2023-05-10T01:26:02;0.53;;;0.43;;
35540;SDS011;21650;48.840;9.162;2023-05-10T01:34:54;0.50;;;0.50;;
35540;SDS011;21650;48.840;9.162;2023-05-10T01:37:26;0.50;;;0.50;;
35540;SDS011;21650;48.840;9.162;2023-05-10T01:40:01;1.63;;;0.67;;
35540;SDS011;21650;48.840;9.162;2023-05-10T01:42:38;0.67;;;0.60;;
35540;SDS011;21650;48.840;9.162;2023-05-10T01:48:05;1.80;;;0.67;;
35540;SDS011;21650;48.840;9.162;2023-05-10T01:50:35;2.40;;;0.70;;
35540;SDS011;21650;48.840;9.162;2023-05-10T01:53:03;1.47;;;0.60;;
35540;SDS011;21650;48.840;9.162;2023-05-10T01:55:32;0.50;;;0.50;;
35540;SDS011;21650;48.840;9.162;2023-05-10T01:58:10;0.70;;;0.70;;
35540;SDS011;21650;48.840;9.162;2023-05-10T02:00:44;0.97;;;0.60;;
35540;SDS011;21650;48.840;9.162;2023-05-10T02:03:12;0.50;;;0.50;;
35540;SDS011;21650;48.840;9.162;2023-05-10T02:05:39;0.90;;;0.60;;
35540;SDS011;21650;48.840;9.162;2023-05-10T02:08:09;0.60;;;0.60;;
35540;SDS011;21650;48.840;9.162;2023-05-10T02:10:35;0.63;;;0.63;;
35540;SDS011;21650;48.840;9.162;2023-05-10T02:13:02;3.37;;;0.70;;
35540;SDS011;21650;48.840;9.162;2023-05-10T02:15:28;0.67;;;0.53;;
35540;SDS011;21650;48.840;9.162;2023-05-10T02:17:55;0.60;;;0.60;;
35540;SDS011;21650;48.840;9.162;2023-05-10T02:20:22;2.00;;;0.60;;
35540;SDS011;21650;48.840;9.162;2023-05-10T02:22:49;2.00;;;0.70;;
35540;SDS011;21650;48.840;9.162;2023-05-10T02:25:17;0.70;;;0.60;;
35540;SDS011;21650;48.840;9.162;2023-05-10T02:27:44;0.80;;;0.70;;
35540;SDS011;21650;48.840;9.162;2023-05-10T02:30:12;1.43;;;0.80;;
35540;SDS011;21650;48.840;9.162;2023-05-10T02:32:38;0.70;;;0.70;;
35540;SDS011;21650;48.840;9.162;2023-05-10T02:35:05;0.93;;;0.77;;
35540;SDS011;21650;48.840;9.162;2023-05-10T02:37:31;0.60;;;0.60;;
35540;SDS011;21650;48.840;9.162;2023-05-10T02:39:59;0.60;;;0.60;;
35540;SDS011;21650;48.840;9.162;2023-05-10T02:42:28;0.60;;;0.60;;
35540;SDS011;21650;48.840;9.162;2023-05-10T02:44:56;2.20;;;0.90;;
35540;SDS011;21650;48.840;9.162;2023-05-10T02:47:26;1.23;;;0.63;;
35540;SDS011;21650;48.840;9.162;2023-05-10T02:49:52;0.90;;;0.70;;
35540;SDS011;21650;48.840;9.162;2023-05-10T02:52:19;1.20;;;0.90;;
35540;SDS011;21650;48.840;9.162;2023-05-10T02:54:49;0.80;;;0.80;;
35540;SDS011;21650;48.840;9.162;2023-05-10T02:57:17;1.20;;;1.10;;
35540;SDS011;21650;48.840;9.162;2023-05-10T02:59:51;0.80;;;0.70;;
35540;SDS011;21650;48.840;9.162;2023-05-10T03:02:16;1.87;;;0.80;;
35540;SDS011;21650;48.840;9.162;2023-05-10T03:04:42;0.90;;;0.80;;
35540;SDS011;21650;48.840;9.162;2023-05-10T03:07:08;1.03;;;0.90;;
35540;SDS011;21650;48.840;9.162;2023-05-10T03:09:33;1.10;;;0.87;;
35540;SDS011;21650;48.840;9.162;2023-05-10T03:12:14;0.80;;;0.80;;
35540;SDS011;21650;48.840;9.162;2023-05-10T03:14:43;2.13;;;0.70;;
35540;SDS011;21650;48.840;9.162;2023-05-10T03:17:23;0.87;;;0.80;;
35540;SDS011;21650;48.840;9.162;2023-05-10T03:20:10;1.10;;;0.93;;
35540;SDS011;21650;48.840;9.162;2023-05-10T03:22:44;2.83;;;1.00;;
35540;SDS011;21650;48.840;9.162;2023-05-10T03:25:12;1.23;;;1.13;;
35540;SDS011;21650;48.840;9.162;2023-05-10T03:27:42;4.27;;;1.40;;
35540;SDS011;21650;48.840;9.162;2023-05-10T03:30:10;1.73;;;1.30;;
35540;SDS011;21650;48.840;9.162;2023-05-10T03:32:37;2.43;;;1.40;;
35540;SDS011;21650;48.840;9.162;2023-05-10T03:35:06;4.43;;;1.87;;
35540;SDS011;21650;48.840;9.162;2023-05-10T03:37:33;5.07;;;2.10;;
35540;SDS011;21650;48.840;9.162;2023-05-10T03:39:59;2.97;;;2.10;;
35540;SDS011;21650;48.840;9.162;2023-05-10T03:42:24;3.43;;;2.03;;
35540;SDS011;21650;48.840;9.162;2023-05-10T03:44:50;2.67;;;2.10;;
35540;SDS011;21650;48.840;9.162;2023-05-10T03:47:15;2.20;;;2.00;;
35540;SDS011;21650;48.840;9.162;2023-05-10T03:49:41;2.00;;;1.80;;
35540;SDS011;21650;48.840;9.162;2023-05-10T03:52:06;4.70;;;2.37;;
35540;SDS011;21650;48.840;9.162;2023-05-10T03:54:32;3.53;;;2.80;;
35540;SDS011;21650;48.840;9.162;2023-05-10T03:56:57;4.43;;;2.70;;
35540;SDS011;21650;48.840;9.162;2023-05-10T03:59:23;4.33;;;2.80;;
35540;SDS011;21650;48.840;9.162;2023-05-10T04:01:48;4.00;;;2.53;;
35540;SDS011;21650;48.840;9.162;2023-05-10T04:04:14;3.23;;;2.93;;
35540;SDS011;21650;48.840;9.162;2023-05-10T04:06:39;3.20;;;2.87;;
35540;SDS011;21650;48.840;9.162;2023-05-10T04:09:05;2.60;;;2.23;;
35540;SDS011;21650;48.840;9.162;2023-05-10T04:11:31;6.03;;;2.50;;
35540;SDS011;21650;48.840;9.162;2023-05-10T04:13:56;3.00;;;2.70;;
35540;SDS011;21650;48.840;9.162;2023-05-10T04:16:22;2.47;;;2.23;;
35540;SDS011;21650;48.840;9.162;2023-05-10T04:18:47;4.63;;;2.30;;
35540;SDS011;21650;48.840;9.162;2023-05-10T04:21:13;3.17;;;2.27;;
35540;SDS011;21650;48.840;9.162;2023-05-10T04:23:40;1.80;;;1.70;;
35540;SDS011;21650;48.840;9.162;2023-05-10T04:26:05;2.33;;;1.63;;
35540;SDS011;21650;48.840;9.162;2023-05-10T04:28:31;3.90;;;1.77;;
35540;SDS011;21650;48.840;9.162;2023-05-10T04:31:00;5.60;;;2.90;;
35540;SDS011;21650;48.840;9.162;2023-05-10T04:33:28;2.10;;;1.90;;
35540;SDS011;21650;48.840;9.162;2023-05-10T04:35:54;2.10;;;1.90;;
35540;SDS011;21650;48.840;9.162;2023-05-10T04:38:20;1.43;;;1.33;;
35540;SDS011;21650;48.840;9.162;2023-05-10T04:40:45;3.73;;;1.67;;
35540;SDS011;21650;48.840;9.162;2023-05-10T04:43:11;4.23;;;1.60;;
35540;SDS011;21650;48.840;9.162;2023-05-10T04:45:36;2.73;;;1.90;;
35540;SDS011;21650;48.840;9.162;2023-05-10T04:48:02;1.20;;;1.07;;
35540;SDS011;21650;48.840;9.162;2023-05-10T04:50:27;2.03;;;1.37;;
35540;SDS011;21650;48.840;9.162;2023-05-10T04:52:53;2.17;;;1.10;;
35540;SDS011;21650;48.840;9.162;2023-05-10T04:55:18;1.60;;;1.50;;
35540;SDS011;21650;48.840;9.162;2023-05-10T04:57:44;2.53;;;1.50;;
35540;SDS011;21650;48.840;9.162;2023-05-10T05:00:10;1.30;;;1.00;;
35540;SDS011;21650;48.840;9.162;2023-05-10T05:02:36;3.10;;;1.30;;
35540;SDS011;21650;48.840;9.162;2023-05-10T05:05:01;5.00;;;1.20;;
35540;SDS011;21650;48.840;9.162;2023-05-10T05:07:27;1.57;;;1.07;;
35540;SDS011;21650;48.840;9.162;2023-05-10T05:09:52;2.80;;;1.27;;
35540;SDS011;21650;48.840;9.162;2023-05-10T05:12:18;1.20;;;1.10;;
35540;SDS011;21650;48.840;9.162;2023-05-10T05:14:44;4.97;;;1.07;;
35540;SDS011;21650;48.840;9.162;2023-05-10T05:17:09;2.13;;;1.13;;
35540;SDS011;21650;48.840;9.162;2023-05-10T05:19:35;2.17;;;1.30;;
35540;SDS011;21650;48.840;9.162;2023-05-10T05:22:01;1.17;;;1.10;;
35540;SDS011;21650;48.840;9.162;2023-05-10T05:24:26;1.40;;;1.17;;
35540;SDS011;21650;48.840;9.162;2023-05-10T05:26:52;1.33;;;1.17;;
35540;SDS011;21650;48.840;9.162;2023-05-10T05:29:17;2.27;;;1.20;;
35540;SDS011;21650;48.840;9.162;2023-05-10T05:31:43;2.20;;;1.40;;
35540;SDS011;21650;48.840;9.162;2023-05-10T05:34:08;1.10;;;1.00;;
35540;SDS011;21650;48.840;9.162;2023-05-10T05:36:35;1.20;;;1.03;;
35540;SDS011;21650;48.840;9.162;2023-05-10T05:39:03;1.67;;;1.20;;
35540;SDS011;21650;48.840;9.162;2023-05-10T05:41:28;1.33;;;1.23;;
35540;SDS011;21650;48.840;9.162;2023-05-10T05:43:54;1.20;;;1.10;;
35540;SDS011;21650;48.840;9.162;2023-05-10T05:46:20;3.63;;;1.30;;
35540;SDS011;21650;48.840;9.162;2023-05-10T05:48:45;1.80;;;1.43;;
35540;SDS011;21650;48.840;9.162;2023-05-10T05:51:11;1.87;;;1.17;;
35540;SDS011;21650;48.840;9.162;2023-05-10T05:53:36;1.67;;;1.23;;
35540;SDS011;21650;48.840;9.162;2023-05-10T05:56:02;1.83;;;1.30;;
35540;SDS011;21650;48.840;9.162;2023-05-10T05:58:28;2.90;;;1.37;;
35540;SDS011;21650;48.840;9.162;2023-05-10T06:00:54;1.50;;;1.40;;
35540;SDS011;21650;48.840;9.162;2023-05-10T06:03:19;1.33;;;1.20;;
35540;SDS011;21650;48.840;9.162;2023-05-10T06:05:45;5.90;;;1.97;;
35540;SDS011;21650;48.840;9.162;2023-05-10T06:08:11;3.40;;;1.70;;
35540;SDS011;21650;48.840;9.162;2023-05-10T06:10:36;2.60;;;2.17;;
35540;SDS011;21650;48.840;9.162;2023-05-10T06:13:02;3.97;;;2.07;;
35540;SDS011;21650;48.840;9.162;2023-05-10T06:15:28;2.73;;;1.40;;
35540;SDS011;21650;48.840;9.162;2023-05-10T06:17:53;2.30;;;2.00;;
35540;SDS011;21650;48.840;9.162;2023-05-10T06:20:19;4.23;;;1.80;;
35540;SDS011;21650;48.840;9.162;2023-05-10T06:22:44;1.93;;;1.60;;
35540;SDS011;21650;48.840;9.162;2023-05-10T06:25:10;3.93;;;1.50;;
35540;SDS011;21650;48.840;9.162;2023-05-10T06:27:36;2.63;;;1.67;;
35540;SDS011;21650;48.840;9.162;2023-05-10T06:30:01;1.50;;;1.40;;
35540;SDS011;21650;48.840;9.162;2023-05-10T06:32:27;2.37;;;1.73;;
35540;SDS011;21650;48.840;9.162;2023-05-10T06:34:53;5.33;;;2.10;;
35540;SDS011;21650;48.840;9.162;2023-05-10T06:37:19;2.23;;;1.73;;
35540;SDS011;21650;48.840;9.162;2023-05-10T06:39:45;2.43;;;1.60;;
35540;SDS011;21650;48.840;9.162;2023-05-10T06:42:10;2.43;;;1.70;;
35540;SDS011;21650;48.840;9.162;2023-05-10T06:44:36;2.57;;;1.40;;
35540;SDS011;21650;48.840;9.162;2023-05-10T06:47:01;3.83;;;1.50;;
35540;SDS011;21650;48.840;9.162;2023-05-10T06:49:27;2.37;;;1.60;;
35540;SDS011;21650;48.840;9.162;2023-05-10T06:51:52;2.47;;;1.90;;
35540;SDS011;21650;48.840;9.162;2023-05-10T06:54:18;3.87;;;1.40;;
35540;SDS011;21650;48.840;9.162;2023-05-10T06:56:44;3.30;;;1.43;;
35540;SDS011;21650;48.840;9.162;2023-05-10T06:59:09;1.50;;;1.40;;
35540;SDS011;21650;48.840;9.162;2023-05-10T07:01:35;2.23;;;1.37;;
35540;SDS011;21650;48.840;9.162;2023-05-10T07:04:00;2.50;;;1.83;;
35540;SDS011;21650;48.840;9.162;2023-05-10T07:06:26;2.27;;;1.30;;
35540;SDS011;21650;48.840;9.162;2023-05-10T07:08:52;2.13;;;1.30;;
35540;SDS011;21650;48.840;9.162;2023-05-10T07:11:17;3.83;;;1.23;;
35540;SDS011;21650;48.840;9.162;2023-05-10T07:13:43;3.20;;;1.27;;
35540;SDS011;21650;48.840;9.162;2023-05-10T07:16:11;2.40;;;1.30;;
35540;SDS011;21650;48.840;9.162;2023-05-10T07:18:36;2.33;;;1.40;;
35540;SDS011;21650;48.840;9.162;2023-05-10T07:21:02;3.53;;;2.10;;
35540;SDS011;21650;48.840;9.162;2023-05-10T07:23:28;2.60;;;2.40;;
35540;SDS011;21650;48.840;9.162;2023-05-10T07:25:54;2.57;;;1.30;;
35540;SDS011;21650;48.840;9.162;2023-05-10T07:28:19;1.83;;;1.10;;
35540;SDS011;21650;48.840;9.162;2023-05-10T07:30:45;1.27;;;0.97;;
35540;SDS011;21650;48.840;9.162;2023-05-10T07:33:11;1.93;;;1.10;;
35540;SDS011;21650;48.840;9.162;2023-05-10T07:35:38;1.87;;;1.23;;
35540;SDS011;21650;48.840;9.162;2023-05-10T07:38:04;3.47;;;1.00;;
35540;SDS011;21650;48.840;9.162;2023-05-10T07:40:29;1.77;;;1.10;;
35540;SDS011;21650;48.840;9.162;2023-05-10T07:42:56;2.40;;;1.40;;
35540;SDS011;21650;48.840;9.162;2023-05-10T07:45:21;2.63;;;0.90;;
35540;SDS011;21650;48.840;9.162;2023-05-10T07:47:48;2.63;;;0.93;;
35540;SDS011;21650;48.840;9.162;2023-05-10T07:50:13;0.70;;;0.70;;
35540;SDS011;21650;48.840;9.162;2023-05-10T07:52:39;1.67;;;0.67;;
35540;SDS011;21650;48.840;9.162;2023-05-10T07:55:05;1.53;;;0.77;;
35540;SDS011;21650;48.840;9.162;2023-05-10T07:57:32;2.13;;;0.97;;
35540;SDS011;21650;48.840;9.162;2023-05-10T08:00:01;1.20;;;0.80;;
35540;SDS011;21650;48.840;9.162;2023-05-10T08:02:27;4.50;;;1.17;;
35540;SDS011;21650;48.840;9.162;2023-05-10T08:04:53;1.93;;;0.83;;
35540;SDS011;21650;48.840;9.162;2023-05-10T08:07:18;2.83;;;1.17;;
35540;SDS011;21650;48.840;9.162;2023-05-10T08:09:44;0.97;;;0.70;;
35540;SDS011;21650;48.840;9.162;2023-05-10T08:12:09;1.40;;;0.80;;
35540;SDS011;21650;48.840;9.162;2023-05-10T08:14:35;3.33;;;0.70;;
35540;SDS011;21650;48.840;9.162;2023-05-10T08:17:01;2.17;;;0.70;;
35540;SDS011;21650;48.840;9.162;2023-05-10T08:19:28;1.77;;;0.70;;
35540;SDS011;21650;48.840;9.162;2023-05-10T08:21:53;1.17;;;0.70;;
35540;SDS011;21650;48.840;9.162;2023-05-10T08:24:20;1.10;;;0.70;;
35540;SDS011;21650;48.840;9.162;2023-05-10T08:26:46;1.10;;;0.50;;
35540;SDS011;21650;48.840;9.162;2023-05-10T08:29:12;0.67;;;0.47;;
35540;SDS011;21650;48.840;9.162;2023-05-10T08:31:38;0.70;;;0.50;;
35540;SDS011;21650;48.840;9.162;2023-05-10T08:34:04;0.50;;;0.40;;
35540;SDS011;21650;48.840;9.162;2023-05-10T08:36:29;2.03;;;0.50;;
35540;SDS011;21650;48.840;9.162;2023-05-10T08:38:55;4.20;;;0.57;;
35540;SDS011;21650;48.840;9.162;2023-05-10T08:41:21;3.57;;;0.50;;
35540;SDS011;21650;48.840;9.162;2023-05-10T08:43:49;0.57;;;0.47;;
35540;SDS011;21650;48.840;9.162;2023-05-10T08:46:16;1.70;;;0.63;;
35540;SDS011;21650;48.840;9.162;2023-05-10T08:48:44;5.30;;;0.57;;
35540;SDS011;21650;48.840;9.162;2023-05-10T08:51:11;1.10;;;0.60;;
35540;SDS011;21650;48.840;9.162;2023-05-10T08:53:39;0.97;;;0.60;;
35540;SDS011;21650;48.840;9.162;2023-05-10T08:56:04;2.50;;;0.60;;
35540;SDS011;21650;48.840;9.162;2023-05-10T08:58:30;2.47;;;0.57;;
35540;SDS011;21650;48.840;9.162;2023-05-10T09:00:56;1.77;;;0.50;;
35540;SDS011;21650;48.840;9.162;2023-05-10T09:03:22;1.47;;;0.43;;
35540;SDS011;21650;48.840;9.162;2023-05-10T09:05:48;4.90;;;0.20;;
35540;SDS011;21650;48.840;9.162;2023-05-10T09:08:14;1.27;;;0.30;;
35540;SDS011;21650;48.840;9.162;2023-05-10T09:10:43;0.40;;;0.30;;
35540;SDS011;21650;48.840;9.162;2023-05-10T09:13:12;2.03;;;0.70;;
35540;SDS011;21650;48.840;9.162;2023-05-10T09:15:40;2.30;;;0.40;;
35540;SDS011;21650;48.840;9.162;2023-05-10T09:18:05;0.93;;;0.60;;
35540;SDS011;21650;48.840;9.162;2023-05-10T09:20:31;1.00;;;0.47;;
35540;SDS011;21650;48.840;9.162;2023-05-10T09:22:56;1.90;;;0.43;;
35540;SDS011;21650;48.840;9.162;2023-05-10T09:25:22;1.80;;;0.40;;
35540;SDS011;21650;48.840;9.162;2023-05-10T09:27:47;2.13;;;0.50;;
35540;SDS011;21650;48.840;9.162;2023-05-10T09:30:17;0.23;;;0.23;;
35540;SDS011;21650;48.840;9.162;2023-05-10T09:32:49;0.37;;;0.30;;
35540;SDS011;21650;48.840;9.162;2023-05-10T09:35:19;0.33;;;0.33;;
35540;SDS011;21650;48.840;9.162;2023-05-10T09:37:48;0.63;;;0.30;;
35540;SDS011;21650;48.840;9.162;2023-05-10T09:40:15;4.77;;;0.50;;
35540;SDS011;21650;48.840;9.162;2023-05-10T09:42:43;0.57;;;0.20;;
35540;SDS011;21650;48.840;9.162;2023-05-10T09:45:17;0.43;;;0.27;;
35540;SDS011;21650;48.840;9.162;2023-05-10T09:47:42;0.53;;;0.40;;
35540;SDS011;21650;48.840;9.162;2023-05-10T09:50:08;0.93;;;0.53;;
35540;SDS011;21650;48.840;9.162;2023-05-10T09:52:54;0.87;;;0.80;;
35540;SDS011;21650;48.840;9.162;2023-05-10T09:55:24;1.23;;;0.40;;
35540;SDS011;21650;48.840;9.162;2023-05-10T09:58:00;1.33;;;0.60;;
35540;SDS011;21650;48.840;9.162;2023-05-10T10:00:27;1.00;;;0.33;;
35540;SDS011;21650;48.840;9.162;2023-05-10T10:02:56;0.70;;;0.60;;
35540;SDS011;21650;48.840;9.162;2023-05-10T10:05:30;0.63;;;0.50;;
35540;SDS011;21650;48.840;9.162;2023-05-10T10:07:57;1.00;;;0.50;;
35540;SDS011;21650;48.840;9.162;2023-05-10T10:10:24;0.67;;;0.50;;
35540;SDS011;21650;48.840;9.162;2023-05-10T10:12:50;1.37;;;0.60;;
35540;SDS011;21650;48.840;9.162;2023-05-10T10:15:16;0.67;;;0.63;;
35540;SDS011;21650;48.840;9.162;2023-05-10T10:17:43;0.80;;;0.40;;
35540;SDS011;21650;48.840;9.162;2023-05-10T10:20:09;1.23;;;0.50;;
35540;SDS011;21650;48.840;9.162;2023-05-10T10:22:36;0.60;;;0.60;;
35540;SDS011;21650;48.840;9.162;2023-05-10T10:25:01;1.10;;;0.50;;
35540;SDS011;21650;48.840;9.162;2023-05-10T10:30:59;0.40;;;0.37;;
35540;SDS011;21650;48.840;9.162;2023-05-10T10:33:18;0.93;;;0.70;;
35540;SDS011;21650;48.840;9.162;2023-05-10T10:35:52;1.17;;;0.50;;
35540;SDS011;21650;48.840;9.162;2023-05-10T10:38:19;0.70;;;0.60;;
35540;SDS011;21650;48.840;9.162;2023-05-10T10:40:46;1.53;;;0.60;;
35540;SDS011;21650;48.840;9.162;2023-05-10T10:43:26;0.73;;;0.40;;
35540;SDS011;21650;48.840;9.162;2023-05-10T10:46:11;1.17;;;0.40;;
35540;SDS011;21650;48.840;9.162;2023-05-10T10:48:47;1.40;;;0.30;;
35540;SDS011;21650;48.840;9.162;2023-05-10T10:51:14;0.67;;;0.40;;
35540;SDS011;21650;48.840;9.162;2023-05-10T10:53:40;1.77;;;0.27;;
35540;SDS011;21650;48.840;9.162;2023-05-10T10:56:10;0.30;;;0.30;;
35540;SDS011;21650;48.840;9.162;2023-05-10T10:58:38;0.30;;;0.20;;
35540;SDS011;21650;48.840;9.162;2023-05-10T11:03:38;0.40;;;0.40;;
35540;SDS011;21650;48.840;9.162;2023-05-10T11:06:03;0.60;;;0.50;;
35540;SDS011;21650;48.840;9.162;2023-05-10T11:08:30;0.60;;;0.50;;
35540;SDS011;21650;48.840;9.162;2023-05-10T11:13:30;0.40;;;0.40;;
35540;SDS011;21650;48.840;9.162;2023-05-10T11:16:13;3.50;;;0.50;;
35540;SDS011;21650;48.840;9.162;2023-05-10T11:18:40;0.83;;;0.30;;
35540;SDS011;21650;48.840;9.162;2023-05-10T11:21:08;1.17;;;0.30;;
35540;SDS011;21650;48.840;9.162;2023-05-10T11:23:48;1.30;;;0.57;;
35540;SDS011;21650;48.840;9.162;2023-05-10T11:26:16;3.57;;;0.40;;
35540;SDS011;21650;48.840;9.162;2023-05-10T11:28:47;0.50;;;0.40;;
35540;SDS011;21650;48.840;9.162;2023-05-10T11:31:14;1.90;;;0.30;;
35540;SDS011;21650;48.840;9.162;2023-05-10T11:36:46;2.13;;;0.63;;
35540;SDS011;21650;48.840;9.162;2023-05-10T11:39:05;0.40;;;0.40;;
35540;SDS011;21650;48.840;9.162;2023-05-10T11:41:30;3.40;;;0.40;;
35540;SDS011;21650;48.840;9.162;2023-05-10T11:43:56;0.80;;;0.70;;
35540;SDS011;21650;48.840;9.162;2023-05-10T11:46:24;0.50;;;0.50;;
35540;SDS011;21650;48.840;9.162;2023-05-10T11:48:52;1.63;;;0.60;;
35540;SDS011;21650;48.840;9.162;2023-05-10T11:51:22;0.60;;;0.50;;
35540;SDS011;21650;48.840;9.162;2023-05-10T11:53:49;0.57;;;0.50;;
35540;SDS011;21650;48.840;9.162;2023-05-10T11:56:20;2.50;;;1.00;;
35540;SDS011;21650;48.840;9.162;2023-05-10T11:58:52;3.80;;;0.80;;
35540;SDS011;21650;48.840;9.162;2023-05-10T12:01:21;1.97;;;0.80;;
35540;SDS011;21650;48.840;9.162;2023-05-10T12:03:52;2.97;;;1.07;;
35540;SDS011;21650;48.840;9.162;2023-05-10T12:06:19;1.50;;;1.00;;
35540;SDS011;21650;48.840;9.162;2023-05-10T12:08:46;1.47;;;0.60;;
35540;SDS011;21650;48.840;9.162;2023-05-10T12:11:12;1.87;;;0.90;;
35540;SDS011;21650;48.840;9.162;2023-05-10T12:13:41;1.30;;;0.90;;
35540;SDS011;21650;48.840;9.162;2023-05-10T12:16:15;1.63;;;1.00;;
35540;SDS011;21650;48.840;9.162;2023-05-10T12:18:42;1.77;;;0.87;;
35540;SDS011;21650;48.840;9.162;2023-05-10T12:21:11;1.50;;;0.90;;
35540;SDS011;21650;48.840;9.162;2023-05-10T12:23:38;1.57;;;0.70;;
35540;SDS011;21650;48.840;9.162;2023-05-10T12:26:04;1.43;;;0.70;;
35540;SDS011;21650;48.840;9.162;2023-05-10T12:28:31;2.33;;;0.77;;
35540;SDS011;21650;48.840;9.162;2023-05-10T12:30:58;3.43;;;1.10;;
35540;SDS011;21650;48.840;9.162;2023-05-10T12:33:24;3.50;;;1.20;;
35540;SDS011;21650;48.840;9.162;2023-05-10T12:35:51;5.20;;;0.83;;
35540;SDS011;21650;48.840;9.162;2023-05-10T12:38:24;1.03;;;0.50;;
35540;SDS011;21650;48.840;9.162;2023-05-10T12:41:01;2.30;;;0.70;;
35540;SDS011;21650;48.840;9.162;2023-05-10T12:43:31;2.30;;;0.60;;
35540;SDS011;21650;48.840;9.162;2023-05-10T12:45:57;2.50;;;0.70;;
35540;SDS011;21650;48.840;9.162;2023-05-10T12:48:23;4.30;;;0.60;;
35540;SDS011;21650;48.840;9.162;2023-05-10T12:50:49;2.10;;;0.77;;
35540;SDS011;21650;48.840;9.162;2023-05-10T12:53:15;1.10;;;0.60;;
35540;SDS011;21650;48.840;9.162;2023-05-10T12:55:41;3.47;;;0.90;;
35540;SDS011;21650;48.840;9.162;2023-05-10T12:58:07;2.07;;;0.70;;
35540;SDS011;21650;48.840;9.162;2023-05-10T13:00:33;0.60;;;0.50;;
35540;SDS011;21650;48.840;9.162;2023-05-10T13:02:58;1.77;;;0.90;;
35540;SDS011;21650;48.840;9.162;2023-05-10T13:05:24;2.37;;;0.67;;
35540;SDS011;21650;48.840;9.162;2023-05-10T13:07:50;1.60;;;0.60;;
35540;SDS011;21650;48.840;9.162;2023-05-10T13:10:15;0.90;;;0.50;;
35540;SDS011;21650;48.840;9.162;2023-05-10T13:12:41;1.07;;;0.57;;
35540;SDS011;21650;48.840;9.162;2023-05-10T13:15:07;3.57;;;0.80;;
35540;SDS011;21650;48.840;9.162;2023-05-10T13:17:33;2.80;;;0.70;;
35540;SDS011;21650;48.840;9.162;2023-05-10T13:19:58;3.33;;;0.90;;
35540;SDS011;21650;48.840;9.162;2023-05-10T13:22:24;2.47;;;1.00;;
35540;SDS011;21650;48.840;9.162;2023-05-10T13:24:50;1.43;;;0.70;;
35540;SDS011;21650;48.840;9.162;2023-05-10T13:27:15;4.13;;;0.97;;
35540;SDS011;21650;48.840;9.162;2023-05-10T13:29:41;0.93;;;0.40;;
35540;SDS011;21650;48.840;9.162;2023-05-10T13:32:06;3.10;;;0.70;;
35540;SDS011;21650;48.840;9.162;2023-05-10T13:34:32;2.10;;;1.40;;
35540;SDS011;21650;48.840;9.162;2023-05-10T13:36:57;2.47;;;0.70;;
35540;SDS011;21650;48.840;9.162;2023-05-10T13:39:23;3.77;;;0.80;;
35540;SDS011;21650;48.840;9.162;2023-05-10T13:41:48;0.97;;;0.70;;
35540;SDS011;21650;48.840;9.162;2023-05-10T13:44:14;2.47;;;0.80;;
35540;SDS011;21650;48.840;9.162;2023-05-10T13:46:40;1.07;;;0.70;;
35540;SDS011;21650;48.840;9.162;2023-05-10T13:49:08;1.63;;;0.73;;
35540;SDS011;21650;48.840;9.162;2023-05-10T13:51:34;1.23;;;0.70;;
35540;SDS011;21650;48.840;9.162;2023-05-10T13:54:00;2.27;;;0.90;;
35540;SDS011;21650;48.840;9.162;2023-05-10T13:56:26;1.77;;;0.80;;
35540;SDS011;21650;48.840;9.162;2023-05-10T13:58:52;2.30;;;0.80;;
35540;SDS011;21650;48.840;9.162;2023-05-10T14:01:18;1.93;;;0.80;;
35540;SDS011;21650;48.840;9.162;2023-05-10T14:03:44;1.97;;;0.70;;
35540;SDS011;21650;48.840;9.162;2023-05-10T14:06:09;1.30;;;0.73;;
35540;SDS011;21650;48.840;9.162;2023-05-10T14:08:35;3.80;;;0.60;;
35540;SDS011;21650;48.840;9.162;2023-05-10T14:11:00;2.93;;;0.50;;
35540;SDS011;21650;48.840;9.162;2023-05-10T14:13:26;3.07;;;0.70;;
35540;SDS011;21650;48.840;9.162;2023-05-10T14:15:52;2.40;;;0.73;;
35540;SDS011;21650;48.840;9.162;2023-05-10T14:18:18;0.80;;;0.50;;
35540;SDS011;21650;48.840;9.162;2023-05-10T14:20:44;2.37;;;0.60;;
35540;SDS011;21650;48.840;9.162;2023-05-10T14:23:09;2.47;;;0.50;;
35540;SDS011;21650;48.840;9.162;2023-05-10T14:25:35;2.20;;;0.50;;
35540;SDS011;21650;48.840;9.162;2023-05-10T14:28:00;2.30;;;0.50;;
35540;SDS011;21650;48.840;9.162;2023-05-10T14:30:26;0.77;;;0.47;;
35540;SDS011;21650;48.840;9.162;2023-05-10T14:32:51;1.87;;;0.63;;
35540;SDS011;21650;48.840;9.162;2023-05-10T14:35:18;0.70;;;0.47;;
35540;SDS011;21650;48.840;9.162;2023-05-10T14:37:44;3.43;;;0.80;;
35540;SDS011;21650;48.840;9.162;2023-05-10T14:40:10;2.50;;;0.50;;
35540;SDS011;21650;48.840;9.162;2023-05-10T14:42:36;1.43;;;0.70;;
35540;SDS011;21650;48.840;9.162;2023-05-10T14:45:02;4.90;;;1.53;;
35540;SDS011;21650;48.840;9.162;2023-05-10T14:47:28;1.10;;;0.67;;
35540;SDS011;21650;48.840;9.162;2023-05-10T14:49:54;2.80;;;0.80;;
35540;SDS011;21650;48.840;9.162;2023-05-10T14:52:19;1.90;;;0.70;;
35540;SDS011;21650;48.840;9.162;2023-05-10T14:54:45;1.73;;;0.60;;
35540;SDS011;21650;48.840;9.162;2023-05-10T14:57:11;1.70;;;0.40;;
35540;SDS011;21650;48.840;9.162;2023-05-10T14:59:36;1.07;;;0.50;;
35540;SDS011;21650;48.840;9.162;2023-05-10T15:02:02;1.43;;;0.73;;
35540;SDS011;21650;48.840;9.162;2023-05-10T15:04:29;1.13;;;0.60;;
35540;SDS011;21650;48.840;9.162;2023-05-10T15:06:54;1.80;;;0.53;;